createdAt,value
2022-09-24T00:01:42.525Z,38.86
2022-09-24T00:04:14.578Z,37.86
2022-09-24T00:06:48.237Z,38.07
2022-09-24T00:09:23.198Z,37.93
2022-09-24T00:11:56.538Z,37.55
2022-09-24T00:14:26.789Z,37.65
2022-09-24T00:16:58.806Z,38.03
2022-09-24T00:19:29.489Z,37.56
2022-09-24T00:22:00.141Z,37.19
2022-09-24T00:24:51.019Z,37.30
2022-09-24T00:27:21.237Z,37.07
2022-09-24T00:29:51.554Z,36.93
2022-09-24T00:32:21.669Z,37.06
2022-09-24T00:34:55.507Z,37.14
2022-09-24T00:37:25.918Z,36.74
2022-09-24T00:39:55.988Z,36.84
2022-09-24T00:42:26.938Z,36.76
2022-09-24T00:44:58.859Z,36.45
2022-09-24T00:47:31.633Z,36.31
2022-09-24T00:50:19.970Z,36.49
2022-09-24T00:53:04.422Z,36.45
2022-09-24T00:55:38.221Z,36.46
2022-09-24T00:58:10.637Z,36.30
2022-09-24T01:00:42.464Z,36.19
2022-09-24T01:03:19.124Z,36.24
2022-09-24T01:05:49.818Z,35.83
2022-09-24T01:08:21.835Z,35.81
2022-09-24T01:11:09.335Z,36.25
2022-09-24T01:14:17.428Z,35.67
2022-09-24T01:17:07.126Z,35.87
2022-09-24T01:19:52.428Z,35.98
2022-09-24T01:22:37.766Z,35.59
2022-09-24T01:25:42.298Z,35.65
2022-09-24T01:28:12.598Z,35.20
2022-09-24T01:30:45.313Z,35.75
2022-09-24T01:33:22.642Z,35.67
2022-09-24T01:35:59.971Z,35.63
2022-09-24T01:38:41.618Z,35.95
2022-09-24T01:41:14.111Z,35.35
2022-09-24T01:43:47.080Z,34.92
2022-09-24T01:46:21.130Z,34.88
2022-09-24T01:48:52.136Z,34.83
2022-09-24T01:51:34.750Z,35.20
2022-09-24T01:54:20.871Z,34.84
2022-09-24T01:57:01.291Z,34.74
2022-09-24T01:59:42.288Z,34.62
2022-09-24T02:02:19.761Z,34.88
2022-09-24T02:04:55.331Z,34.30
2022-09-24T02:08:14.492Z,34.79
2022-09-24T02:10:57.295Z,34.63
2022-09-24T02:13:32.843Z,34.24
2022-09-24T02:16:07.168Z,34.28
2022-09-24T02:18:41.412Z,34.18
2022-09-24T02:21:17.621Z,33.76
2022-09-24T02:23:53.956Z,33.88
2022-09-24T02:26:24.387Z,34.05
2022-09-24T02:28:54.759Z,34.26
2022-09-24T02:31:31.361Z,33.98
2022-09-24T02:34:22.380Z,32.58
2022-09-24T02:37:02.168Z,32.57
2022-09-24T02:39:33.112Z,33.34
2022-09-24T02:42:06.840Z,33.68
2022-09-24T02:44:40.857Z,33.79
2022-09-24T02:47:12.080Z,32.76
2022-09-24T02:49:42.589Z,32.93
2022-09-24T02:52:13.394Z,33.26
2022-09-24T02:54:44.121Z,33.17
2022-09-24T02:57:15.057Z,33.15
2022-09-24T02:59:45.518Z,32.70
2022-09-24T03:02:16.608Z,32.19
2022-09-24T03:04:48.423Z,32.77
2022-09-24T03:07:18.504Z,32.43
2022-09-24T03:09:48.929Z,32.60
2022-09-24T03:12:19.287Z,32.97
2022-09-24T03:14:49.570Z,31.30
2022-09-24T03:17:20.332Z,32.30
2022-09-24T03:19:50.508Z,33.64
2022-09-24T03:22:20.877Z,32.81
2022-09-24T03:24:51.162Z,32.87
2022-09-24T03:27:22.379Z,32.01
2022-09-24T03:30:21.382Z,31.36
2022-09-24T03:32:51.554Z,30.48
2022-09-24T03:35:22.656Z,32.29
2022-09-24T03:37:57.802Z,32.69
2022-09-24T03:40:28.804Z,31.71
2022-09-24T03:42:59.640Z,31.93
2022-09-24T03:45:29.900Z,31.31
2022-09-24T03:48:00.051Z,31.43
2022-09-24T03:50:32.796Z,29.32
2022-09-24T03:53:03.227Z,32.08
2022-09-24T03:55:33.236Z,31.52
2022-09-24T03:58:04.032Z,32.80
2022-09-24T04:00:38.843Z,31.85
2022-09-24T04:03:11.970Z,31.89
2022-09-24T04:05:42.325Z,31.64
2022-09-24T04:08:13.128Z,31.77
2022-09-24T04:10:47.691Z,31.95
2022-09-24T04:13:18.591Z,31.80
2022-09-24T04:15:50.396Z,30.99
2022-09-24T04:18:21.195Z,31.19
2022-09-24T04:20:51.486Z,30.09
2022-09-24T04:23:21.916Z,30.74
2022-09-24T04:25:54.427Z,29.92
2022-09-24T04:28:25.721Z,30.57
2022-09-24T04:30:55.894Z,30.50
2022-09-24T04:33:26.219Z,30.42
2022-09-24T04:35:56.428Z,29.65
2022-09-24T04:38:26.646Z,29.87
2022-09-24T04:40:58.030Z,30.46
2022-09-24T04:43:28.253Z,29.19
2022-09-24T04:46:00.863Z,30.12
2022-09-24T04:48:31.168Z,30.14
2022-09-24T04:51:01.417Z,28.67
2022-09-24T04:53:31.605Z,29.91
2022-09-24T04:56:02.590Z,29.92
2022-09-24T04:58:33.239Z,30.13
2022-09-24T05:01:05.668Z,31.53
2022-09-24T05:03:36.141Z,29.13
2022-09-24T05:06:06.586Z,29.05
2022-09-24T05:08:36.670Z,28.45
2022-09-24T05:11:07.005Z,29.00
2022-09-24T05:13:37.587Z,29.55
2022-09-24T05:16:08.136Z,28.46
2022-09-24T05:18:38.651Z,29.18
2022-09-24T05:21:09.436Z,28.43
2022-09-24T05:23:40.003Z,28.39
2022-09-24T05:26:28.681Z,28.42
2022-09-24T05:28:58.949Z,28.66
2022-09-24T05:31:30.275Z,27.13
2022-09-24T05:34:03.800Z,28.22
2022-09-24T05:36:35.270Z,26.81
2022-09-24T05:39:06.480Z,28.93
2022-09-24T05:41:36.912Z,28.60
2022-09-24T05:44:10.926Z,27.84
2022-09-24T05:46:47.543Z,28.56
2022-09-24T05:49:18.849Z,27.87
2022-09-24T05:51:53.385Z,28.41
2022-09-24T05:54:24.381Z,28.01
2022-09-24T05:56:54.942Z,27.56
2022-09-24T05:59:26.444Z,28.09
2022-09-24T06:01:56.950Z,28.30
2022-09-24T06:04:29.179Z,28.15
2022-09-24T06:07:00.024Z,27.70
2022-09-24T06:09:31.041Z,27.52
2022-09-24T06:12:02.555Z,27.04
2022-09-24T06:14:33.324Z,28.59
2022-09-24T06:17:03.660Z,28.20
2022-09-24T06:19:34.407Z,27.42
2022-09-24T06:22:05.493Z,26.70
2022-09-24T06:24:36.817Z,26.86
2022-09-24T06:27:07.677Z,26.74
2022-09-24T06:29:38.230Z,27.13
2022-09-24T06:32:09.508Z,26.61
2022-09-24T06:34:39.844Z,24.24
2022-09-24T06:37:09.976Z,25.82
2022-09-24T06:39:40.222Z,27.09
2022-09-24T06:42:10.353Z,27.36
2022-09-24T06:44:42.410Z,26.91
2022-09-24T06:47:13.962Z,26.27
2022-09-24T06:49:44.872Z,26.66
2022-09-24T06:52:14.449Z,25.84
2022-09-24T06:54:44.688Z,26.50
2022-09-24T06:57:16.405Z,27.36
2022-09-24T06:59:47.496Z,27.43
2022-09-24T07:02:18.484Z,27.06
2022-09-24T07:04:49.405Z,26.03
2022-09-24T07:07:33.359Z,26.06
2022-09-24T07:10:11.913Z,27.59
2022-09-24T07:12:44.217Z,27.12
2022-09-24T07:15:14.845Z,27.46
2022-09-24T07:17:45.021Z,27.58
2022-09-24T07:20:15.759Z,27.34
2022-09-24T07:22:45.951Z,26.71
2022-09-24T07:25:16.744Z,26.83
2022-09-24T07:27:46.240Z,27.69
2022-09-24T07:30:18.033Z,27.02
2022-09-24T07:32:49.712Z,26.99
2022-09-24T07:35:22.434Z,26.14
2022-09-24T07:38:06.678Z,26.81
2022-09-24T07:40:37.423Z,25.70
2022-09-24T07:43:15.058Z,25.25
2022-09-24T07:45:46.567Z,25.63
2022-09-24T07:48:17.138Z,25.37
2022-09-24T07:50:48.274Z,25.04
2022-09-24T07:53:19.029Z,25.02
2022-09-24T07:55:50.753Z,26.17
2022-09-24T07:58:23.840Z,25.82
2022-09-24T08:00:54.799Z,25.64
2022-09-24T08:03:25.152Z,24.88
2022-09-24T08:06:01.151Z,26.10
2022-09-24T08:08:32.165Z,26.33
2022-09-24T08:11:07.678Z,27.28
2022-09-24T08:13:38.836Z,25.87
2022-09-24T08:16:09.491Z,25.33
2022-09-24T08:18:40.819Z,26.33
2022-09-24T08:21:14.633Z,26.68
2022-09-24T08:23:46.258Z,26.57
2022-09-24T08:26:16.601Z,26.38
2022-09-24T08:28:46.871Z,26.90
2022-09-24T08:31:17.662Z,26.01
2022-09-24T08:33:52.158Z,27.10
2022-09-24T08:36:22.351Z,26.41
2022-09-24T08:38:56.334Z,28.66
2022-09-24T08:41:28.565Z,27.70
2022-09-24T08:44:39.118Z,28.71
2022-09-24T08:47:25.170Z,29.09
2022-09-24T08:50:19.099Z,28.14
2022-09-24T08:53:13.531Z,28.91
2022-09-24T08:55:59.849Z,28.28
2022-09-24T08:58:48.202Z,28.96
2022-09-24T09:01:53.367Z,28.48
2022-09-24T09:04:29.745Z,28.03
2022-09-24T09:07:17.313Z,27.91
2022-09-24T09:10:10.333Z,28.92
2022-09-24T09:12:46.363Z,28.32
2022-09-24T09:15:28.559Z,28.95
2022-09-24T09:18:03.365Z,27.66
2022-09-24T09:20:39.074Z,29.23
2022-09-24T09:23:23.218Z,29.44
2022-09-24T09:26:01.948Z,29.40
2022-09-24T09:28:33.219Z,29.36
2022-09-24T09:31:21.646Z,29.93
2022-09-24T09:34:02.805Z,29.70
2022-09-24T09:37:05.477Z,30.09
2022-09-24T09:39:57.412Z,29.96
2022-09-24T09:42:40.239Z,30.05
2022-09-24T09:45:13.602Z,30.65
2022-09-24T09:47:49.043Z,30.43
2022-09-24T09:50:28.396Z,30.94
2022-09-24T09:52:58.986Z,31.23
2022-09-24T09:55:36.248Z,31.15
2022-09-24T09:58:21.595Z,31.09
2022-09-24T10:00:52.358Z,32.30
2022-09-24T10:03:26.531Z,31.88
2022-09-24T10:06:08.449Z,31.38
2022-09-24T10:08:38.566Z,32.75
2022-09-24T10:11:16.489Z,32.90
2022-09-24T10:13:47.088Z,31.70
2022-09-24T10:16:17.680Z,33.16
2022-09-24T10:18:52.913Z,32.54
2022-09-24T10:21:37.404Z,32.46
2022-09-24T10:24:14.254Z,33.27
2022-09-24T10:26:46.720Z,33.67
2022-09-24T10:29:44.416Z,33.26
2022-09-24T10:32:21.896Z,33.46
2022-09-24T10:35:02.335Z,33.60
2022-09-24T10:37:32.617Z,35.10
2022-09-24T10:40:25.095Z,34.44
2022-09-24T10:43:05.620Z,33.83
2022-09-24T10:46:02.882Z,33.78
2022-09-24T10:49:04.975Z,33.33
2022-09-24T10:51:53.349Z,34.64
2022-09-24T10:54:27.435Z,34.86
2022-09-24T10:57:01.928Z,35.40
2022-09-24T10:59:38.945Z,34.42
2022-09-24T11:02:15.396Z,36.04
2022-09-24T11:04:53.550Z,35.05
2022-09-24T11:07:33.338Z,34.80
2022-09-24T11:10:42.905Z,34.68
2022-09-24T11:13:35.517Z,34.03
2022-09-24T11:16:23.670Z,35.64
2022-09-24T11:19:00.050Z,35.14
2022-09-24T11:21:47.809Z,34.61
2022-09-24T11:24:53.294Z,35.25
2022-09-24T11:27:38.519Z,35.58
2022-09-24T11:30:26.147Z,35.56
2022-09-24T11:33:29.670Z,35.45
2022-09-24T11:36:28.890Z,36.04
2022-09-24T11:39:27.736Z,35.10
2022-09-24T11:42:23.723Z,36.16
2022-09-24T11:45:15.583Z,36.34
2022-09-24T11:48:17.502Z,35.42
2022-09-24T11:51:05.795Z,36.78
2022-09-24T11:54:02.696Z,35.87
2022-09-24T11:56:42.642Z,36.59
2022-09-24T11:59:54.004Z,35.94
2022-09-24T12:02:36.625Z,35.66
2022-09-24T12:05:21.380Z,36.26
2022-09-24T12:08:12.324Z,35.96
2022-09-24T12:10:59.303Z,36.63
2022-09-24T12:13:53.809Z,35.83
2022-09-24T12:16:26.427Z,36.32
2022-09-24T12:19:29.274Z,35.91
2022-09-24T12:22:00.841Z,36.72
2022-09-24T12:24:44.357Z,36.57
2022-09-24T12:27:23.418Z,36.33
2022-09-24T12:30:16.825Z,36.48
2022-09-24T12:33:11.550Z,36.32
2022-09-24T12:35:48.699Z,36.80
2022-09-24T12:38:46.533Z,36.68
2022-09-24T12:41:31.893Z,37.07
2022-09-24T12:44:19.677Z,36.68
2022-09-24T12:47:00.797Z,37.23
2022-09-24T12:49:31.086Z,38.32
2022-09-24T12:52:17.835Z,38.08
2022-09-24T12:54:56.062Z,38.04
2022-09-24T12:57:30.401Z,38.23
2022-09-24T13:00:03.821Z,38.49
2022-09-24T13:02:47.460Z,37.21
2022-09-24T13:05:31.789Z,38.32
2022-09-24T13:08:03.343Z,39.00
2022-09-24T13:10:38.345Z,39.02
2022-09-24T13:13:42.456Z,38.09
2022-09-24T13:16:24.087Z,38.02
2022-09-24T13:19:03.678Z,37.97
2022-09-24T13:21:34.186Z,39.55
2022-09-24T13:24:13.434Z,38.23
2022-09-24T13:26:43.870Z,39.26
2022-09-24T13:29:30.107Z,38.28
2022-09-24T13:32:04.977Z,38.28
2022-09-24T13:34:36.498Z,39.83
2022-09-24T13:37:35.190Z,38.63
2022-09-24T13:40:29.371Z,37.86
2022-09-24T13:43:15.086Z,38.92
2022-09-24T13:45:47.977Z,39.06
2022-09-24T13:48:39.193Z,37.83
2022-09-24T13:51:13.693Z,39.53
2022-09-24T13:54:00.246Z,39.05
2022-09-24T13:56:30.905Z,39.88
2022-09-24T13:59:15.867Z,39.73
2022-09-24T14:01:51.438Z,39.61
2022-09-24T14:04:25.604Z,39.36
2022-09-24T14:06:58.064Z,39.62
2022-09-24T14:09:34.862Z,38.99
2022-09-24T14:12:24.620Z,39.02
2022-09-24T14:14:59.619Z,39.64
2022-09-24T14:17:30.184Z,40.54
2022-09-24T14:20:00.689Z,39.36
2022-09-24T14:22:38.891Z,39.21
2022-09-24T14:25:20.204Z,39.38
2022-09-24T14:27:52.938Z,40.63
2022-09-24T14:30:29.387Z,40.14
2022-09-24T14:33:17.437Z,40.39
2022-09-24T14:36:00.338Z,39.39
2022-09-24T14:38:53.244Z,40.34
2022-09-24T14:41:35.859Z,40.30
2022-09-24T14:44:31.293Z,39.43
2022-09-24T14:47:02.382Z,40.96
2022-09-24T14:49:47.106Z,39.07
2022-09-24T14:52:32.840Z,40.06
2022-09-24T14:55:22.873Z,40.05
2022-09-24T14:57:57.617Z,41.52
2022-09-24T15:00:33.317Z,40.93
2022-09-24T15:03:17.452Z,40.46
2022-09-24T15:05:48.742Z,41.44
2022-09-24T15:08:26.371Z,40.67
2022-09-24T15:10:59.970Z,41.47
2022-09-24T15:13:41.085Z,40.05
2022-09-24T15:16:29.579Z,40.58
2022-09-24T15:19:26.924Z,41.00
2022-09-24T15:22:01.775Z,41.41
2022-09-24T15:24:32.440Z,41.51
2022-09-24T15:27:28.467Z,40.61
2022-09-24T15:30:01.391Z,41.40
2022-09-24T15:32:35.213Z,41.76
2022-09-24T15:35:10.809Z,41.98
2022-09-24T15:37:42.591Z,40.93
2022-09-24T15:40:18.783Z,41.32
2022-09-24T15:42:49.836Z,42.20
2022-09-24T15:45:25.599Z,41.29
2022-09-24T15:47:56.872Z,42.79
2022-09-24T15:50:30.737Z,42.77
2022-09-24T15:53:03.346Z,42.50
2022-09-24T15:55:37.644Z,42.44
2022-09-24T15:58:19.225Z,41.37
2022-09-24T16:00:50.392Z,43.06
2022-09-24T16:03:30.061Z,42.54
2022-09-24T16:06:01.498Z,42.19
2022-09-24T16:08:31.759Z,43.16
2022-09-24T16:11:03.930Z,42.66
2022-09-24T16:13:38.663Z,44.05
2022-09-24T16:16:09.913Z,43.25
2022-09-24T16:18:41.652Z,42.33
2022-09-24T16:21:12.392Z,42.60
2022-09-24T16:23:42.694Z,43.27
2022-09-24T16:26:12.824Z,42.91
2022-09-24T16:28:42.871Z,43.47
2022-09-24T16:31:13.013Z,42.99
2022-09-24T16:33:43.235Z,42.78
2022-09-24T16:36:13.788Z,42.55
2022-09-24T16:38:44.306Z,43.07
2022-09-24T16:41:14.417Z,43.21
2022-09-24T16:43:44.561Z,43.32
2022-09-24T16:46:20.265Z,44.64
2022-09-24T16:48:54.194Z,42.64
2022-09-24T16:51:24.914Z,42.81
2022-09-24T16:53:58.912Z,42.96
2022-09-24T16:56:29.657Z,42.60
2022-09-24T16:58:59.996Z,42.13
2022-09-24T17:01:30.000Z,41.68
2022-09-24T17:04:00.478Z,41.75
2022-09-24T17:06:32.938Z,43.15
2022-09-24T17:09:21.579Z,42.13
2022-09-24T17:11:51.832Z,42.10
2022-09-24T17:14:21.925Z,42.16
2022-09-24T17:16:52.093Z,42.26
2022-09-24T17:19:22.419Z,42.19
2022-09-24T17:21:53.387Z,41.47
2022-09-24T17:24:23.752Z,41.93
2022-09-24T17:26:55.500Z,41.33
2022-09-24T17:29:31.115Z,42.38
2022-09-24T17:32:02.310Z,42.10
2022-09-24T17:34:32.676Z,42.06
2022-09-24T17:37:02.925Z,42.60
2022-09-24T17:39:33.062Z,42.61
2022-09-24T17:42:03.925Z,43.28
2022-09-24T17:44:34.316Z,42.38
2022-09-24T17:47:04.562Z,43.04
2022-09-24T17:49:35.241Z,43.03
2022-09-24T17:52:06.167Z,44.39
2022-09-24T17:54:36.777Z,44.42
2022-09-24T17:57:06.981Z,42.99
2022-09-24T17:59:38.505Z,43.57
2022-09-24T18:02:08.804Z,43.35
2022-09-24T18:04:39.823Z,43.95
2022-09-24T18:07:10.124Z,43.75
2022-09-24T18:09:40.177Z,43.69
2022-09-24T18:12:14.821Z,43.67
2022-09-24T18:14:47.275Z,43.83
2022-09-24T18:17:17.505Z,43.71
2022-09-24T18:19:47.754Z,44.16
2022-09-24T18:22:17.938Z,44.73
2022-09-24T18:24:49.991Z,44.22
2022-09-24T18:27:21.883Z,44.12
2022-09-24T18:29:53.720Z,44.73
2022-09-24T18:32:25.497Z,43.98
2022-09-24T18:34:55.560Z,44.32
2022-09-24T18:37:25.920Z,43.82
2022-09-24T18:39:55.951Z,44.66
2022-09-24T18:42:26.974Z,43.55
2022-09-24T18:44:57.293Z,44.87
2022-09-24T18:47:27.786Z,44.63
2022-09-24T18:49:57.824Z,45.62
2022-09-24T18:52:28.681Z,44.38
2022-09-24T18:54:59.120Z,44.95
2022-09-24T18:57:29.185Z,45.14
2022-09-24T18:59:59.978Z,45.75
2022-09-24T19:02:30.374Z,44.90
2022-09-24T19:05:00.623Z,45.73
2022-09-24T19:07:31.779Z,45.85
2022-09-24T19:10:02.222Z,46.36
2022-09-24T19:12:33.038Z,45.69
2022-09-24T19:15:03.301Z,46.10
2022-09-24T19:17:34.098Z,45.97
2022-09-24T19:20:05.878Z,47.61
2022-09-24T19:22:36.095Z,45.16
2022-09-24T19:25:06.541Z,46.06
2022-09-24T19:27:36.782Z,45.89
2022-09-24T19:30:07.390Z,45.16
2022-09-24T19:32:40.224Z,46.24
2022-09-24T19:35:10.870Z,45.95
2022-09-24T19:37:41.744Z,47.95
2022-09-24T19:40:12.966Z,47.64
2022-09-24T19:42:43.773Z,46.26
2022-09-24T19:45:14.144Z,46.07
2022-09-24T19:47:44.930Z,47.09
2022-09-24T19:50:17.787Z,47.96
2022-09-24T19:52:49.930Z,46.21
2022-09-24T19:55:22.752Z,46.28
2022-09-24T19:57:57.587Z,47.38
2022-09-24T20:00:28.108Z,46.63
2022-09-24T20:02:58.809Z,46.72
2022-09-24T20:05:28.948Z,46.35
2022-09-24T20:07:59.498Z,47.40
2022-09-24T20:10:29.818Z,46.80
2022-09-24T20:13:00.288Z,46.25
2022-09-24T20:15:31.161Z,47.45
2022-09-24T20:18:01.472Z,47.30
2022-09-24T20:20:31.871Z,46.69
2022-09-24T20:23:01.892Z,46.17
2022-09-24T20:25:50.013Z,46.66
2022-09-24T20:28:20.184Z,46.32
2022-09-24T20:30:50.547Z,45.42
2022-09-24T20:33:21.545Z,45.65
2022-09-24T20:35:53.714Z,46.70
2022-09-24T20:38:24.316Z,46.06
2022-09-24T20:40:54.632Z,45.51
2022-09-24T20:43:25.405Z,47.68
2022-09-24T20:45:58.851Z,46.93
2022-09-24T20:48:32.105Z,47.27
2022-09-24T20:51:02.900Z,48.04
2022-09-24T20:53:33.381Z,47.79
2022-09-24T20:56:03.953Z,47.99
2022-09-24T20:58:38.024Z,47.23
2022-09-24T21:01:11.464Z,45.99
2022-09-24T21:03:46.190Z,47.59
2022-09-24T21:06:18.229Z,46.51
2022-09-24T21:08:49.058Z,47.38
2022-09-24T21:11:28.283Z,45.90
2022-09-24T21:14:06.125Z,46.75
2022-09-24T21:16:37.336Z,46.90
2022-09-24T21:19:09.142Z,46.44
2022-09-24T21:21:40.599Z,47.29
2022-09-24T21:24:14.161Z,46.80
2022-09-24T21:26:46.441Z,46.83
2022-09-24T21:29:19.328Z,49.73
2022-09-24T21:31:50.513Z,48.40
2022-09-24T21:34:22.308Z,47.50
2022-09-24T21:36:53.481Z,47.55
2022-09-24T21:39:27.746Z,49.06
2022-09-24T21:42:01.761Z,47.95
2022-09-24T21:44:37.711Z,46.95
2022-09-24T21:47:10.307Z,47.76
2022-09-24T21:49:44.111Z,50.19
2022-09-24T21:52:14.586Z,47.59
2022-09-24T21:54:44.846Z,49.33
2022-09-24T21:57:14.901Z,49.48
2022-09-24T22:00:05.264Z,49.04
2022-09-24T22:02:36.578Z,49.54
2022-09-24T22:05:09.353Z,48.12
2022-09-24T22:07:40.434Z,48.42
2022-09-24T22:10:11.601Z,47.38
2022-09-24T22:12:41.827Z,48.88
2022-09-24T22:15:12.571Z,47.33
2022-09-24T22:17:42.857Z,48.14
2022-09-24T22:20:12.875Z,47.14
2022-09-24T22:22:44.032Z,47.45
2022-09-24T22:25:14.263Z,48.12
2022-09-24T22:27:44.763Z,47.22
2022-09-24T22:30:15.467Z,48.13
2022-09-24T22:32:45.646Z,48.54
2022-09-24T22:35:33.574Z,47.67
2022-09-24T22:38:03.731Z,47.90
2022-09-24T22:40:39.351Z,47.72
2022-09-24T22:43:08.863Z,47.17
2022-09-24T22:45:38.241Z,48.57
2022-09-24T22:48:08.285Z,48.38
2022-09-24T22:50:38.295Z,46.99
2022-09-24T22:53:08.308Z,47.16
2022-09-24T22:55:38.469Z,48.15
2022-09-24T22:58:08.750Z,50.99
2022-09-24T23:00:41.559Z,47.02
2022-09-24T23:03:11.964Z,47.35
2022-09-24T23:05:42.669Z,47.25
2022-09-24T23:08:12.805Z,47.28
2022-09-24T23:10:42.983Z,47.35
2022-09-24T23:13:13.773Z,47.62
2022-09-24T23:15:44.243Z,46.71
2022-09-24T23:18:14.816Z,46.94
2022-09-24T23:20:45.018Z,46.61
2022-09-24T23:23:15.853Z,47.90
2022-09-24T23:25:46.455Z,46.95
2022-09-24T23:28:17.537Z,46.69
2022-09-24T23:30:57.651Z,46.64
2022-09-24T23:33:28.751Z,46.33
2022-09-24T23:35:58.797Z,46.24
2022-09-24T23:38:29.645Z,46.66
2022-09-24T23:41:02.045Z,46.47
2022-09-24T23:43:33.222Z,46.05
2022-09-24T23:46:03.829Z,46.56
2022-09-24T23:48:34.917Z,45.33
2022-09-24T23:51:05.837Z,45.83
2022-09-24T23:53:37.506Z,45.79
2022-09-24T23:56:09.519Z,45.73
2022-09-24T23:58:40.813Z,44.94
